createdAt,value
2018-05-26T00:02:22.269Z,19.30
2018-05-26T00:04:49.785Z,19.30
2018-05-26T00:07:18.093Z,19.20
2018-05-26T00:09:45.682Z,19.20
2018-05-26T00:12:13.203Z,19.30
2018-05-26T00:14:40.804Z,19.20
2018-05-26T00:17:08.720Z,19.30
2018-05-26T00:19:36.243Z,19.20
2018-05-26T00:22:03.786Z,19.20
2018-05-26T00:24:31.329Z,19.20
2018-05-26T00:26:58.860Z,19.20
2018-05-26T00:29:26.726Z,19.10
2018-05-26T00:31:54.247Z,19.20
2018-05-26T00:34:21.740Z,19.20
2018-05-26T00:36:49.262Z,19.20
2018-05-26T00:39:17.564Z,19.10
2018-05-26T00:41:45.083Z,19.10
2018-05-26T00:44:12.621Z,19.10
2018-05-26T00:46:40.143Z,19.10
2018-05-26T00:49:07.678Z,19.00
2018-05-26T00:51:35.942Z,19.10
2018-05-26T00:54:03.462Z,19.00
2018-05-26T00:56:30.973Z,19.00
2018-05-26T00:58:58.789Z,19.00
2018-05-26T01:01:26.303Z,19.00
2018-05-26T01:03:54.691Z,19.10
2018-05-26T01:06:22.565Z,19.10
2018-05-26T01:08:50.109Z,19.00
2018-05-26T01:11:18.484Z,19.00
2018-05-26T01:13:46.238Z,18.90
2018-05-26T01:16:14.590Z,18.90
2018-05-26T01:18:43.043Z,18.90
2018-05-26T01:21:10.586Z,18.90
2018-05-26T01:23:38.123Z,18.90
2018-05-26T01:26:05.666Z,18.90
2018-05-26T01:28:33.595Z,18.80
2018-05-26T01:31:01.115Z,18.80
2018-05-26T01:33:29.380Z,18.80
2018-05-26T01:35:56.970Z,18.80
2018-05-26T01:38:24.504Z,18.70
2018-05-26T01:40:52.774Z,18.70
2018-05-26T01:43:21.049Z,18.70
2018-05-26T01:45:48.807Z,18.70
2018-05-26T01:48:17.085Z,18.70
2018-05-26T01:50:45.502Z,18.60
2018-05-26T01:53:13.629Z,18.70
2018-05-26T01:55:41.948Z,18.70
2018-05-26T01:58:09.729Z,18.70
2018-05-26T02:00:38.044Z,18.60
2018-05-26T02:03:05.547Z,18.60
2018-05-26T02:05:33.086Z,18.70
2018-05-26T02:08:00.682Z,18.60
2018-05-26T02:10:28.214Z,18.60
2018-05-26T02:12:56.167Z,18.50
2018-05-26T02:15:23.678Z,18.50
2018-05-26T02:17:52.024Z,18.40
2018-05-26T02:20:19.599Z,18.40
2018-05-26T02:22:47.514Z,18.40
2018-05-26T02:25:15.823Z,18.40
2018-05-26T02:27:43.668Z,18.40
2018-05-26T02:30:11.930Z,18.40
2018-05-26T02:32:39.441Z,18.40
2018-05-26T02:35:06.968Z,18.30
2018-05-26T02:37:34.491Z,18.30
2018-05-26T02:40:02.408Z,18.30
2018-05-26T02:42:29.916Z,18.40
2018-05-26T02:44:57.537Z,18.30
2018-05-26T02:47:25.057Z,18.20
2018-05-26T02:49:52.584Z,18.30
2018-05-26T02:52:20.538Z,18.20
2018-05-26T02:54:48.054Z,18.20
2018-05-26T02:57:15.793Z,18.20
2018-05-26T02:59:44.658Z,18.20
2018-05-26T03:02:12.166Z,18.20
2018-05-26T03:04:45.808Z,18.20
2018-05-26T03:07:19.153Z,18.20
2018-05-26T03:09:52.725Z,18.10
2018-05-26T03:12:25.827Z,18.10
2018-05-26T03:14:53.613Z,18.10
2018-05-26T03:30:44.967Z,18.20
2018-05-26T03:33:13.275Z,18.20
2018-05-26T03:35:41.563Z,18.20
2018-05-26T03:38:09.335Z,18.20
2018-05-26T03:40:37.252Z,18.10
2018-05-26T03:43:05.171Z,18.20
2018-05-26T03:45:32.711Z,18.10
2018-05-26T03:48:00.236Z,18.10
2018-05-26T03:50:27.761Z,18.10
2018-05-26T03:52:55.315Z,18.10
2018-05-26T03:55:35.432Z,18.10
2018-05-26T03:58:15.018Z,18.10
2018-05-26T04:00:42.527Z,18.10
2018-05-26T04:03:10.447Z,18.10
2018-05-26T04:05:38.284Z,18.10
2018-05-26T04:08:05.796Z,18.10
2018-05-26T04:10:33.299Z,18.10
2018-05-26T04:13:00.830Z,18.20
2018-05-26T04:15:28.450Z,18.10
2018-05-26T04:17:56.377Z,18.20
2018-05-26T04:20:24.279Z,18.20
2018-05-26T04:22:51.795Z,18.20
2018-05-26T04:25:19.784Z,18.20
2018-05-26T04:27:47.391Z,18.20
2018-05-26T04:30:15.311Z,18.20
2018-05-26T04:32:42.826Z,18.30
2018-05-26T04:35:11.119Z,18.40
2018-05-26T04:37:39.409Z,18.50
2018-05-26T04:40:07.019Z,18.50
2018-05-26T04:42:34.859Z,18.50
2018-05-26T04:45:02.754Z,18.60
2018-05-26T04:47:30.263Z,18.70
2018-05-26T04:49:58.539Z,18.70
2018-05-26T04:52:26.576Z,18.70
2018-05-26T04:54:54.940Z,18.80
2018-05-26T04:57:22.474Z,18.90
2018-05-26T04:59:49.974Z,18.90
2018-05-26T05:02:18.251Z,19.00
2018-05-26T05:04:46.265Z,19.10
2018-05-26T05:07:13.763Z,19.20
2018-05-26T05:09:41.659Z,19.30
2018-05-26T05:12:09.196Z,19.40
2018-05-26T05:14:37.231Z,19.60
2018-05-26T05:17:04.917Z,19.80
2018-05-26T05:19:33.544Z,19.90
2018-05-26T05:22:01.086Z,19.90
2018-05-26T05:24:28.999Z,19.90
2018-05-26T05:26:56.867Z,20.00
2018-05-26T05:29:24.370Z,20.10
2018-05-26T05:31:52.722Z,20.30
2018-05-26T05:34:20.671Z,20.30
2018-05-26T05:36:48.178Z,20.40
2018-05-26T05:39:16.454Z,20.40
2018-05-26T05:41:44.007Z,20.50
2018-05-26T05:44:11.922Z,20.50
2018-05-26T05:46:39.427Z,20.40
2018-05-26T05:49:07.849Z,20.50
2018-05-26T05:51:35.346Z,20.50
2018-05-26T05:54:02.875Z,20.50
2018-05-26T05:56:30.429Z,20.50
2018-05-26T05:58:57.999Z,20.60
2018-05-26T06:01:25.519Z,20.50
2018-05-26T06:03:53.036Z,20.70
2018-05-26T06:06:20.585Z,20.70
2018-05-26T06:08:48.108Z,20.80
2018-05-26T06:11:15.644Z,21.00
2018-05-26T06:13:43.163Z,21.10
2018-05-26T06:16:11.466Z,21.30
2018-05-26T06:18:40.014Z,21.50
2018-05-26T06:21:07.504Z,21.70
2018-05-26T06:23:35.780Z,21.80
2018-05-26T06:26:03.668Z,21.90
2018-05-26T06:28:31.260Z,22.00
2018-05-26T06:30:58.801Z,22.10
2018-05-26T06:33:27.048Z,22.10
2018-05-26T06:35:55.405Z,22.20
2018-05-26T06:38:23.089Z,22.40
2018-05-26T06:40:51.564Z,22.70
2018-05-26T06:43:19.044Z,22.90
2018-05-26T06:45:46.518Z,23.00
2018-05-26T06:48:14.009Z,22.90
2018-05-26T06:50:41.495Z,23.20
2018-05-26T06:53:09.769Z,23.20
2018-05-26T06:55:38.366Z,23.40
2018-05-26T06:58:06.614Z,23.70
2018-05-26T07:00:34.103Z,23.90
2018-05-26T07:03:01.594Z,24.00
2018-05-26T07:05:29.066Z,24.20
2018-05-26T07:07:59.299Z,24.40
2018-05-26T07:10:27.894Z,24.80
2018-05-26T07:12:56.147Z,25.30
2018-05-26T07:15:23.642Z,25.80
2018-05-26T07:17:52.315Z,26.40
2018-05-26T07:20:20.680Z,26.90
2018-05-26T07:22:48.154Z,26.80
2018-05-26T07:25:16.035Z,27.20
2018-05-26T07:27:43.559Z,27.50
2018-05-26T07:30:11.093Z,28.00
2018-05-26T07:32:38.899Z,28.40
2018-05-26T07:35:07.152Z,28.50
2018-05-26T07:37:35.063Z,28.20
2018-05-26T07:40:02.601Z,28.20
2018-05-26T07:42:31.016Z,28.70
2018-05-26T07:44:58.536Z,28.70
2018-05-26T07:47:26.814Z,28.90
2018-05-26T07:49:55.744Z,29.00
2018-05-26T07:52:23.606Z,28.90
2018-05-26T07:54:51.123Z,28.60
2018-05-26T07:57:19.478Z,28.40
2018-05-26T07:59:46.970Z,28.10
2018-05-26T08:02:15.364Z,28.50
2018-05-26T08:04:42.902Z,28.70
2018-05-26T08:07:11.432Z,28.80
2018-05-26T08:09:40.594Z,29.00
2018-05-26T08:12:08.083Z,29.40
2018-05-26T08:14:36.522Z,29.30
2018-05-26T08:17:04.049Z,28.90
2018-05-26T08:19:31.535Z,28.90
2018-05-26T08:21:59.794Z,29.20
2018-05-26T08:24:28.081Z,29.40
2018-05-26T08:26:55.625Z,29.60
2018-05-26T08:29:23.122Z,29.70
2018-05-26T08:31:50.673Z,29.00
2018-05-26T08:34:18.178Z,28.60
2018-05-26T08:36:45.674Z,28.70
2018-05-26T08:39:14.042Z,28.70
2018-05-26T08:41:42.320Z,28.90
2018-05-26T08:44:10.591Z,29.30
2018-05-26T08:46:38.195Z,28.80
2018-05-26T08:49:05.858Z,28.50
2018-05-26T08:51:33.379Z,29.00
2018-05-26T08:54:00.899Z,29.40
2018-05-26T08:56:28.419Z,29.50
2018-05-26T08:58:55.996Z,29.60
2018-05-26T09:04:27.330Z,29.90
2018-05-26T09:06:55.689Z,29.90
2018-05-26T09:09:24.002Z,29.60
2018-05-26T09:11:51.592Z,30.00
2018-05-26T09:14:19.165Z,30.40
2018-05-26T09:16:46.710Z,30.50
2018-05-26T09:19:14.251Z,30.10
2018-05-26T09:21:41.823Z,30.40
2018-05-26T09:26:43.707Z,31.30
2018-05-26T09:29:12.202Z,31.30
2018-05-26T09:31:39.689Z,31.10
2018-05-26T09:34:07.440Z,30.30
2018-05-26T09:36:36.063Z,30.30
2018-05-26T09:39:03.562Z,30.20
2018-05-26T09:41:31.131Z,30.20
2018-05-26T09:43:59.412Z,30.70
2018-05-26T09:46:27.717Z,31.30
2018-05-26T09:48:55.571Z,31.20
2018-05-26T09:51:23.092Z,31.10
2018-05-26T09:53:51.629Z,30.80
2018-05-26T09:56:19.141Z,30.90
2018-05-26T09:58:47.836Z,31.20
2018-05-26T10:01:16.297Z,31.20
2018-05-26T10:03:44.610Z,31.30
2018-05-26T10:06:12.146Z,31.30
2018-05-26T10:08:39.668Z,30.90
2018-05-26T10:11:07.192Z,30.90
2018-05-26T10:13:34.691Z,30.70
2018-05-26T10:16:02.211Z,30.70
2018-05-26T10:18:29.765Z,30.80
2018-05-26T10:20:57.251Z,30.70
2018-05-26T10:23:24.783Z,31.00
2018-05-26T10:25:52.315Z,31.20
2018-05-26T10:28:19.862Z,31.60
2018-05-26T10:30:48.212Z,31.50
2018-05-26T10:33:15.735Z,31.20
2018-05-26T10:35:43.244Z,31.20
2018-05-26T10:38:12.316Z,31.00
2018-05-26T10:40:39.964Z,30.50
2018-05-26T10:43:07.465Z,30.70
2018-05-26T10:45:39.502Z,30.90
2018-05-26T10:48:07.024Z,30.90
2018-05-26T10:50:34.544Z,29.90
2018-05-26T10:53:02.081Z,29.90
2018-05-26T10:55:30.430Z,29.70
2018-05-26T10:57:58.405Z,30.20
2018-05-26T11:00:25.946Z,30.30
2018-05-26T11:02:53.516Z,30.30
2018-05-26T11:05:21.248Z,30.30
2018-05-26T11:07:48.814Z,30.80
2018-05-26T11:10:16.369Z,30.90
2018-05-26T11:12:44.512Z,31.40
2018-05-26T11:15:12.743Z,31.30
2018-05-26T11:17:40.351Z,31.20
2018-05-26T11:20:08.637Z,31.60
2018-05-26T11:22:36.154Z,31.60
2018-05-26T11:25:04.512Z,31.40
2018-05-26T11:27:31.990Z,31.30
2018-05-26T11:29:59.932Z,31.10
2018-05-26T11:32:27.455Z,30.70
2018-05-26T11:34:55.049Z,30.70
2018-05-26T11:37:23.014Z,30.60
2018-05-26T11:39:51.211Z,30.50
2018-05-26T11:42:18.819Z,30.40
2018-05-26T11:44:46.337Z,30.40
2018-05-26T11:47:13.945Z,30.70
2018-05-26T11:49:41.446Z,30.70
2018-05-26T11:52:09.072Z,30.60
2018-05-26T11:54:36.720Z,30.50
2018-05-26T11:57:04.317Z,30.40
2018-05-26T11:59:31.838Z,30.50
2018-05-26T12:01:59.361Z,30.60
2018-05-26T12:04:26.850Z,30.60
2018-05-26T12:06:54.397Z,30.50
2018-05-26T12:09:22.672Z,30.40
2018-05-26T12:11:50.942Z,30.40
2018-05-26T12:14:19.208Z,30.30
2018-05-26T12:16:46.787Z,30.30
2018-05-26T12:19:14.311Z,30.40
2018-05-26T12:21:42.935Z,30.50
2018-05-26T12:24:10.452Z,30.50
2018-05-26T12:26:37.973Z,30.50
2018-05-26T12:29:05.506Z,30.40
2018-05-26T12:31:33.020Z,30.40
2018-05-26T12:34:00.563Z,30.30
2018-05-26T12:36:28.073Z,30.30
2018-05-26T12:38:56.333Z,30.40
2018-05-26T12:41:23.860Z,30.40
2018-05-26T12:43:51.368Z,30.30
2018-05-26T12:46:19.689Z,30.40
2018-05-26T12:48:47.185Z,30.30
2018-05-26T12:51:14.707Z,30.30
2018-05-26T12:53:42.215Z,30.20
2018-05-26T12:56:10.463Z,30.10
2018-05-26T12:58:37.971Z,30.10
2018-05-26T13:01:05.469Z,30.20
2018-05-26T13:03:32.973Z,30.30
2018-05-26T13:06:00.463Z,30.30
2018-05-26T13:08:27.968Z,30.20
2018-05-26T13:10:56.263Z,30.30
2018-05-26T13:13:23.806Z,30.40
2018-05-26T13:15:52.148Z,30.50
2018-05-26T13:18:19.639Z,30.50
2018-05-26T13:20:47.190Z,30.50
2018-05-26T13:23:15.486Z,30.50
2018-05-26T13:25:42.998Z,30.50
2018-05-26T13:28:10.492Z,30.70
2018-05-26T13:30:38.772Z,30.80
2018-05-26T13:33:07.035Z,30.80
2018-05-26T13:35:34.595Z,30.70
2018-05-26T13:38:02.858Z,30.60
2018-05-26T13:40:31.115Z,30.40
2018-05-26T13:42:58.608Z,30.30
2018-05-26T13:45:26.860Z,30.30
2018-05-26T13:47:54.373Z,30.40
2018-05-26T13:50:21.877Z,30.40
2018-05-26T13:52:50.171Z,30.30
2018-05-26T13:55:18.486Z,30.40
2018-05-26T13:57:46.727Z,30.50
2018-05-26T14:00:14.230Z,30.50
2018-05-26T14:02:41.750Z,30.20
2018-05-26T14:05:09.279Z,30.20
2018-05-26T14:07:37.123Z,29.90
2018-05-26T14:10:05.575Z,29.60
2018-05-26T14:12:33.846Z,29.70
2018-05-26T14:15:01.472Z,29.70
2018-05-26T14:17:29.289Z,29.70
2018-05-26T14:19:57.756Z,29.60
2018-05-26T14:22:26.728Z,29.60
2018-05-26T14:24:54.220Z,29.70
2018-05-26T14:27:21.719Z,29.80
2018-05-26T14:29:49.962Z,29.80
2018-05-26T14:32:17.475Z,29.80
2018-05-26T14:34:44.960Z,29.70
2018-05-26T14:37:12.455Z,29.60
2018-05-26T14:39:39.947Z,29.60
2018-05-26T14:42:07.439Z,29.80
2018-05-26T14:44:35.015Z,29.60
2018-05-26T14:47:02.493Z,29.60
2018-05-26T14:49:30.752Z,29.60
2018-05-26T14:51:58.236Z,29.60
2018-05-26T14:54:26.508Z,29.70
2018-05-26T14:56:54.078Z,29.70
2018-05-26T14:59:21.562Z,29.70
2018-05-26T15:01:49.036Z,29.80
2018-05-26T15:04:16.533Z,29.80
2018-05-26T15:06:44.786Z,29.70
2018-05-26T15:09:12.335Z,29.70
2018-05-26T15:11:39.835Z,29.70
2018-05-26T15:14:07.312Z,29.60
2018-05-26T15:16:34.803Z,29.60
2018-05-26T15:19:02.304Z,29.60
2018-05-26T15:21:30.569Z,29.70
2018-05-26T15:23:58.832Z,29.80
2018-05-26T15:26:26.321Z,29.80
2018-05-26T15:28:53.954Z,29.80
2018-05-26T15:31:22.212Z,29.90
2018-05-26T15:33:50.497Z,29.70
2018-05-26T15:36:18.772Z,29.60
2018-05-26T15:38:47.047Z,29.50
2018-05-26T15:41:14.567Z,29.40
2018-05-26T15:43:42.064Z,29.50
2018-05-26T15:46:10.353Z,29.50
2018-05-26T15:48:38.619Z,29.50
2018-05-26T15:51:06.102Z,29.40
2018-05-26T15:53:33.608Z,29.50
2018-05-26T15:56:01.242Z,29.50
2018-05-26T15:58:28.759Z,29.60
2018-05-26T16:00:57.023Z,29.40
2018-05-26T16:03:24.816Z,29.40
2018-05-26T16:05:52.308Z,29.30
2018-05-26T16:08:19.782Z,29.30
2018-05-26T16:10:47.275Z,29.40
2018-05-26T16:13:14.782Z,29.40
2018-05-26T16:15:42.919Z,29.40
2018-05-26T16:18:10.767Z,29.40
2018-05-26T16:20:39.002Z,29.50
2018-05-26T16:23:06.491Z,29.40
2018-05-26T16:25:34.812Z,29.30
2018-05-26T16:28:02.296Z,29.30
2018-05-26T16:30:29.776Z,29.30
2018-05-26T16:32:58.517Z,29.30
2018-05-26T16:35:25.978Z,29.30
2018-05-26T16:37:53.466Z,29.30
2018-05-26T16:40:22.070Z,29.20
2018-05-26T16:42:50.334Z,29.20
2018-05-26T16:45:18.625Z,29.10
2018-05-26T16:47:46.882Z,29.00
2018-05-26T16:50:15.135Z,29.00
2018-05-26T16:52:42.621Z,29.00
2018-05-26T16:55:10.146Z,29.00
2018-05-26T16:57:37.634Z,29.10
2018-05-26T17:00:06.614Z,29.10
2018-05-26T17:02:34.105Z,29.10
2018-05-26T17:05:01.626Z,29.10
2018-05-26T17:07:29.127Z,28.90
2018-05-26T17:09:56.627Z,29.00
2018-05-26T17:12:24.126Z,28.90
2018-05-26T17:14:51.606Z,29.00
2018-05-26T17:17:19.143Z,28.90
2018-05-26T17:19:46.645Z,28.90
2018-05-26T17:22:14.130Z,28.90
2018-05-26T17:24:41.631Z,28.90
2018-05-26T17:27:09.103Z,28.80
2018-05-26T17:29:36.600Z,28.80
2018-05-26T17:32:04.362Z,28.70
2018-05-26T17:34:31.850Z,28.60
2018-05-26T17:36:59.326Z,28.60
2018-05-26T17:39:26.832Z,28.50
2018-05-26T17:41:55.125Z,28.50
2018-05-26T17:44:23.386Z,28.40
2018-05-26T17:46:51.668Z,28.40
2018-05-26T17:49:23.706Z,28.40
2018-05-26T17:51:51.497Z,28.40
2018-05-26T17:54:19.819Z,28.30
2018-05-26T17:56:47.351Z,28.30
2018-05-26T17:59:14.826Z,28.20
2018-05-26T18:01:42.707Z,28.20
2018-05-26T18:04:10.186Z,28.10
2018-05-26T18:06:37.678Z,28.10
2018-05-26T18:09:05.924Z,28.00
2018-05-26T18:11:33.431Z,28.10
2018-05-26T18:14:00.921Z,28.00
2018-05-26T18:16:28.707Z,28.00
2018-05-26T18:18:56.970Z,28.00
2018-05-26T18:21:24.489Z,27.90
2018-05-26T18:23:51.968Z,27.90
2018-05-26T18:26:19.451Z,27.90
2018-05-26T18:28:47.731Z,27.60
2018-05-26T18:31:15.338Z,27.50
2018-05-26T18:33:42.811Z,27.40
2018-05-26T18:36:10.295Z,27.40
2018-05-26T18:38:37.774Z,27.40
2018-05-26T18:41:06.016Z,27.30
2018-05-26T18:43:33.501Z,27.30
2018-05-26T18:46:01.758Z,27.30
2018-05-26T18:48:30.754Z,27.10
2018-05-26T18:50:58.242Z,27.10
2018-05-26T18:53:25.742Z,27.20
2018-05-26T18:55:53.217Z,27.10
2018-05-26T18:58:20.999Z,27.00
2018-05-26T19:00:48.895Z,27.00
2018-05-26T19:03:16.795Z,26.80
2018-05-26T19:05:44.298Z,26.80
2018-05-26T19:08:12.630Z,26.80
2018-05-26T19:10:40.204Z,26.70
2018-05-26T19:13:07.986Z,26.70
2018-05-26T19:15:36.340Z,26.60
2018-05-26T19:18:03.833Z,26.60
2018-05-26T19:20:31.375Z,26.50
2018-05-26T19:22:58.867Z,26.30
2018-05-26T19:25:26.363Z,26.30
2018-05-26T19:27:54.054Z,26.10
2018-05-26T19:30:21.553Z,26.00
2018-05-26T19:32:49.071Z,26.00
2018-05-26T19:35:17.456Z,26.00
2018-05-26T19:37:45.344Z,25.90
2018-05-26T19:40:12.839Z,25.80
2018-05-26T19:42:40.531Z,25.70
2018-05-26T19:45:08.451Z,25.70
2018-05-26T19:47:35.973Z,25.60
2018-05-26T19:50:03.495Z,25.50
2018-05-26T19:52:30.971Z,25.50
2018-05-26T19:54:58.868Z,25.40
2018-05-26T19:57:26.369Z,25.30
2018-05-26T19:59:53.925Z,25.30
2018-05-26T20:02:21.406Z,25.20
2018-05-26T20:04:50.136Z,25.10
2018-05-26T20:07:17.695Z,25.10
2018-05-26T20:09:45.191Z,25.00
2018-05-26T20:12:13.094Z,24.90
2018-05-26T20:14:40.599Z,24.80
2018-05-26T20:17:08.106Z,24.80
2018-05-26T20:19:35.616Z,24.70
2018-05-26T20:22:03.137Z,24.60
2018-05-26T20:24:30.634Z,24.60
2018-05-26T20:26:58.139Z,24.60
2018-05-26T20:29:25.638Z,24.50
2018-05-26T20:31:53.931Z,24.40
2018-05-26T20:34:21.426Z,24.30
2018-05-26T20:36:48.927Z,24.20
2018-05-26T20:39:16.451Z,24.20
2018-05-26T20:41:43.963Z,24.20
2018-05-26T20:44:11.489Z,24.10
2018-05-26T20:46:38.980Z,24.10
2018-05-26T20:49:07.265Z,24.00
2018-05-26T20:51:34.751Z,23.90
2018-05-26T20:54:02.254Z,23.80
2018-05-26T20:56:29.772Z,23.90
2018-05-26T20:58:57.277Z,23.80
2018-05-26T21:01:24.818Z,23.70
2018-05-26T21:03:52.338Z,23.70
2018-05-26T21:06:19.827Z,23.60
2018-05-26T21:08:47.316Z,23.60
2018-05-26T21:11:15.597Z,23.60
2018-05-26T21:13:43.080Z,23.50
2018-05-26T21:16:11.336Z,23.40
2018-05-26T21:18:38.832Z,23.30
2018-05-26T21:21:06.371Z,23.30
2018-05-26T21:23:34.598Z,23.20
2018-05-26T21:26:02.416Z,23.20
2018-05-26T21:28:30.020Z,23.20
2018-05-26T21:30:57.550Z,23.20
2018-05-26T21:33:25.054Z,23.10
2018-05-26T21:35:52.895Z,23.10
2018-05-26T21:38:21.194Z,22.90
2018-05-26T21:40:49.069Z,22.90
2018-05-26T21:43:16.586Z,22.80
2018-05-26T21:45:44.066Z,22.80
2018-05-26T21:48:12.660Z,22.80
2018-05-26T21:50:40.276Z,22.70
2018-05-26T21:53:07.755Z,22.70
2018-05-26T21:55:35.765Z,22.70
2018-05-26T21:58:03.317Z,22.70
2018-05-26T22:00:31.151Z,22.60
2018-05-26T22:02:59.051Z,22.60
2018-05-26T22:05:26.941Z,22.50
2018-05-26T22:07:54.812Z,22.50
2018-05-26T22:10:23.478Z,22.50
2018-05-26T22:12:51.759Z,22.40
2018-05-26T22:15:19.250Z,22.30
2018-05-26T22:17:46.741Z,22.30
2018-05-26T22:20:14.627Z,22.20
2018-05-26T22:22:42.571Z,22.20
2018-05-26T22:25:10.781Z,22.10
2018-05-26T22:27:38.310Z,22.10
2018-05-26T22:30:06.186Z,22.10
2018-05-26T22:32:34.077Z,22.10
2018-05-26T22:35:02.010Z,22.10
2018-05-26T22:37:29.949Z,22.10
2018-05-26T22:39:57.542Z,22.10
2018-05-26T22:42:25.803Z,22.00
2018-05-26T22:44:53.683Z,22.10
2018-05-26T22:47:22.197Z,22.10
2018-05-26T22:49:49.688Z,22.10
2018-05-26T22:52:17.602Z,22.00
2018-05-26T22:54:45.487Z,22.00
2018-05-26T22:57:13.368Z,22.00
2018-05-26T22:59:41.252Z,22.00
2018-05-26T23:02:09.887Z,21.90
2018-05-26T23:04:37.376Z,21.80
2018-05-26T23:07:04.900Z,21.80
2018-05-26T23:09:32.792Z,21.80
2018-05-26T23:12:00.282Z,21.90
2018-05-26T23:14:27.792Z,21.80
2018-05-26T23:16:55.308Z,21.80
2018-05-26T23:19:22.799Z,21.80
2018-05-26T23:21:50.292Z,21.70
2018-05-26T23:24:17.813Z,21.60
2018-05-26T23:26:46.063Z,21.70
2018-05-26T23:29:14.326Z,21.60
2018-05-26T23:31:42.163Z,21.60
2018-05-26T23:34:09.646Z,21.50
2018-05-26T23:36:37.913Z,21.50
2018-05-26T23:39:05.410Z,21.50
2018-05-26T23:41:33.668Z,21.40
2018-05-26T23:44:01.923Z,21.50
2018-05-26T23:46:30.198Z,21.40
2018-05-26T23:48:58.490Z,21.40
2018-05-26T23:51:26.770Z,21.30
2018-05-26T23:53:54.287Z,21.30
2018-05-26T23:56:21.786Z,21.30
2018-05-26T23:58:50.041Z,21.20
